sensor_id;sensor_type;location;lat;lon;timestamp;temperature;humidity
20479;DHT22;10398;52.490;13.434;2023-07-31T00:01:50;17.20;99.90
20479;DHT22;10398;52.490;13.434;2023-07-31T00:04:16;17.10;99.90
20479;DHT22;10398;52.490;13.434;2023-07-31T00:06:42;17.10;99.90
20479;DHT22;10398;52.490;13.434;2023-07-31T00:09:07;17.10;99.90
20479;DHT22;10398;52.490;13.434;2023-07-31T00:11:33;17.00;99.90
20479;DHT22;10398;52.490;13.434;2023-07-31T00:13:58;17.00;99.90
20479;DHT22;10398;52.490;13.434;2023-07-31T00:16:24;17.00;99.90
20479;DHT22;10398;52.490;13.434;2023-07-31T00:18:50;17.00;99.90
20479;DHT22;10398;52.490;13.434;2023-07-31T00:21:15;17.00;99.90
20479;DHT22;10398;52.490;13.434;2023-07-31T00:23:41;16.90;99.90
20479;DHT22;10398;52.490;13.434;2023-07-31T00:26:07;16.90;99.90
20479;DHT22;10398;52.490;13.434;2023-07-31T00:28:32;16.90;99.90
20479;DHT22;10398;52.490;13.434;2023-07-31T00:30:58;16.90;99.90
20479;DHT22;10398;52.490;13.434;2023-07-31T00:33:23;16.90;99.90
20479;DHT22;10398;52.490;13.434;2023-07-31T00:35:49;16.90;99.90
20479;DHT22;10398;52.490;13.434;2023-07-31T00:38:15;16.90;99.90
20479;DHT22;10398;52.490;13.434;2023-07-31T00:40:40;16.80;99.90
20479;DHT22;10398;52.490;13.434;2023-07-31T00:43:06;16.80;99.90
20479;DHT22;10398;52.490;13.434;2023-07-31T00:45:32;16.80;99.90
20479;DHT22;10398;52.490;13.434;2023-07-31T00:47:58;16.80;99.90
20479;DHT22;10398;52.490;13.434;2023-07-31T00:50:25;16.90;99.90
20479;DHT22;10398;52.490;13.434;2023-07-31T00:52:51;16.80;99.90
20479;DHT22;10398;52.490;13.434;2023-07-31T00:55:17;16.80;99.90
20479;DHT22;10398;52.490;13.434;2023-07-31T00:57:45;16.70;99.90
20479;DHT22;10398;52.490;13.434;2023-07-31T01:00:11;16.80;99.90
20479;DHT22;10398;52.490;13.434;2023-07-31T01:02:37;16.80;99.90
20479;DHT22;10398;52.490;13.434;2023-07-31T01:05:03;16.90;99.90
20479;DHT22;10398;52.490;13.434;2023-07-31T01:07:45;16.90;99.90
20479;DHT22;10398;52.490;13.434;2023-07-31T01:10:26;16.80;99.90
20479;DHT22;10398;52.490;13.434;2023-07-31T01:12:56;16.80;99.90
20479;DHT22;10398;52.490;13.434;2023-07-31T01:15:23;16.80;99.90
20479;DHT22;10398;52.490;13.434;2023-07-31T01:17:48;16.70;99.90
20479;DHT22;10398;52.490;13.434;2023-07-31T01:20:20;16.70;99.90
20479;DHT22;10398;52.490;13.434;2023-07-31T01:28:08;16.80;99.90
20479;DHT22;10398;52.490;13.434;2023-07-31T01:30:39;16.70;99.90
20479;DHT22;10398;52.490;13.434;2023-07-31T01:33:07;16.70;99.90
20479;DHT22;10398;52.490;13.434;2023-07-31T01:35:34;16.80;99.90
20479;DHT22;10398;52.490;13.434;2023-07-31T01:38:00;16.90;99.90
20479;DHT22;10398;52.490;13.434;2023-07-31T01:40:26;16.90;99.90
20479;DHT22;10398;52.490;13.434;2023-07-31T01:42:52;16.80;99.90
20479;DHT22;10398;52.490;13.434;2023-07-31T01:45:17;16.90;99.90
20479;DHT22;10398;52.490;13.434;2023-07-31T01:47:43;16.80;99.90
20479;DHT22;10398;52.490;13.434;2023-07-31T01:50:09;16.80;99.90
20479;DHT22;10398;52.490;13.434;2023-07-31T01:52:35;16.90;99.90
20479;DHT22;10398;52.490;13.434;2023-07-31T01:55:00;17.00;99.90
20479;DHT22;10398;52.490;13.434;2023-07-31T01:57:26;17.00;99.90
20479;DHT22;10398;52.490;13.434;2023-07-31T01:59:52;17.00;99.90
20479;DHT22;10398;52.490;13.434;2023-07-31T02:02:22;17.10;99.90
20479;DHT22;10398;52.490;13.434;2023-07-31T02:04:48;17.10;99.90
20479;DHT22;10398;52.490;13.434;2023-07-31T02:07:14;17.20;99.90
20479;DHT22;10398;52.490;13.434;2023-07-31T02:09:40;17.20;99.90
20479;DHT22;10398;52.490;13.434;2023-07-31T02:12:06;17.20;99.90
20479;DHT22;10398;52.490;13.434;2023-07-31T02:14:34;17.10;99.90
20479;DHT22;10398;52.490;13.434;2023-07-31T02:16:59;17.10;99.90
20479;DHT22;10398;52.490;13.434;2023-07-31T02:19:25;17.10;99.90
20479;DHT22;10398;52.490;13.434;2023-07-31T02:21:51;17.10;99.90
20479;DHT22;10398;52.490;13.434;2023-07-31T02:24:17;17.10;99.90
20479;DHT22;10398;52.490;13.434;2023-07-31T02:26:42;17.10;99.90
20479;DHT22;10398;52.490;13.434;2023-07-31T02:29:08;17.10;99.90
20479;DHT22;10398;52.490;13.434;2023-07-31T02:31:34;17.10;99.90
20479;DHT22;10398;52.490;13.434;2023-07-31T02:34:00;17.10;99.90
20479;DHT22;10398;52.490;13.434;2023-07-31T02:36:25;17.10;99.90
20479;DHT22;10398;52.490;13.434;2023-07-31T02:38:51;17.10;99.90
20479;DHT22;10398;52.490;13.434;2023-07-31T02:41:16;17.10;99.90
20479;DHT22;10398;52.490;13.434;2023-07-31T02:43:42;17.00;99.90
20479;DHT22;10398;52.490;13.434;2023-07-31T02:46:09;17.00;99.90
20479;DHT22;10398;52.490;13.434;2023-07-31T02:48:35;17.00;99.90
20479;DHT22;10398;52.490;13.434;2023-07-31T02:51:00;17.00;99.90
20479;DHT22;10398;52.490;13.434;2023-07-31T02:53:26;17.00;99.90
20479;DHT22;10398;52.490;13.434;2023-07-31T02:55:52;17.00;99.90
20479;DHT22;10398;52.490;13.434;2023-07-31T02:58:17;17.00;99.90
20479;DHT22;10398;52.490;13.434;2023-07-31T03:00:44;17.00;99.90
20479;DHT22;10398;52.490;13.434;2023-07-31T03:03:10;17.00;99.90
20479;DHT22;10398;52.490;13.434;2023-07-31T03:05:35;17.00;99.90
20479;DHT22;10398;52.490;13.434;2023-07-31T03:08:01;16.90;99.90
20479;DHT22;10398;52.490;13.434;2023-07-31T03:10:27;16.90;99.90
20479;DHT22;10398;52.490;13.434;2023-07-31T03:12:52;16.70;99.90
20479;DHT22;10398;52.490;13.434;2023-07-31T03:15:18;16.80;99.90
20479;DHT22;10398;52.490;13.434;2023-07-31T03:17:44;16.80;99.90
20479;DHT22;10398;52.490;13.434;2023-07-31T03:20:10;16.70;99.90
20479;DHT22;10398;52.490;13.434;2023-07-31T03:22:36;16.70;99.90
20479;DHT22;10398;52.490;13.434;2023-07-31T03:25:02;16.80;99.90
20479;DHT22;10398;52.490;13.434;2023-07-31T03:27:28;16.80;99.90
20479;DHT22;10398;52.490;13.434;2023-07-31T03:29:53;16.70;99.90
20479;DHT22;10398;52.490;13.434;2023-07-31T03:32:19;16.70;99.90
20479;DHT22;10398;52.490;13.434;2023-07-31T03:34:45;16.70;99.90
20479;DHT22;10398;52.490;13.434;2023-07-31T03:37:10;16.70;99.90
20479;DHT22;10398;52.490;13.434;2023-07-31T03:39:36;16.70;99.90
20479;DHT22;10398;52.490;13.434;2023-07-31T03:42:02;16.70;99.90
20479;DHT22;10398;52.490;13.434;2023-07-31T03:44:27;16.80;99.90
20479;DHT22;10398;52.490;13.434;2023-07-31T03:46:53;16.70;99.90
20479;DHT22;10398;52.490;13.434;2023-07-31T03:49:19;16.80;99.90
20479;DHT22;10398;52.490;13.434;2023-07-31T03:51:44;16.80;99.90
20479;DHT22;10398;52.490;13.434;2023-07-31T03:54:10;16.80;99.90
20479;DHT22;10398;52.490;13.434;2023-07-31T03:56:35;16.80;99.90
20479;DHT22;10398;52.490;13.434;2023-07-31T03:59:03;16.80;99.90
20479;DHT22;10398;52.490;13.434;2023-07-31T04:01:28;16.90;99.90
20479;DHT22;10398;52.490;13.434;2023-07-31T04:03:54;16.90;99.90
20479;DHT22;10398;52.490;13.434;2023-07-31T04:06:20;16.80;99.90
20479;DHT22;10398;52.490;13.434;2023-07-31T04:08:45;16.80;99.90
20479;DHT22;10398;52.490;13.434;2023-07-31T04:11:11;16.80;99.90
20479;DHT22;10398;52.490;13.434;2023-07-31T04:13:38;16.70;99.90
20479;DHT22;10398;52.490;13.434;2023-07-31T04:16:04;16.70;99.90
20479;DHT22;10398;52.490;13.434;2023-07-31T04:18:29;16.70;99.90
20479;DHT22;10398;52.490;13.434;2023-07-31T04:20:57;16.70;99.90
20479;DHT22;10398;52.490;13.434;2023-07-31T04:23:24;16.70;99.90
20479;DHT22;10398;52.490;13.434;2023-07-31T04:25:50;16.80;99.90
20479;DHT22;10398;52.490;13.434;2023-07-31T04:28:15;16.70;99.90
20479;DHT22;10398;52.490;13.434;2023-07-31T04:30:41;16.80;99.90
20479;DHT22;10398;52.490;13.434;2023-07-31T04:33:07;16.80;99.90
20479;DHT22;10398;52.490;13.434;2023-07-31T04:35:32;16.80;99.90
20479;DHT22;10398;52.490;13.434;2023-07-31T04:37:58;16.80;99.90
20479;DHT22;10398;52.490;13.434;2023-07-31T04:40:23;16.80;99.90
20479;DHT22;10398;52.490;13.434;2023-07-31T04:42:49;16.70;99.90
20479;DHT22;10398;52.490;13.434;2023-07-31T04:45:15;16.70;99.90
20479;DHT22;10398;52.490;13.434;2023-07-31T04:47:40;16.70;99.90
20479;DHT22;10398;52.490;13.434;2023-07-31T04:50:06;16.70;99.90
20479;DHT22;10398;52.490;13.434;2023-07-31T04:52:32;16.70;99.90
20479;DHT22;10398;52.490;13.434;2023-07-31T04:54:58;16.70;99.90
20479;DHT22;10398;52.490;13.434;2023-07-31T04:57:23;16.70;99.90
20479;DHT22;10398;52.490;13.434;2023-07-31T04:59:49;16.70;99.90
20479;DHT22;10398;52.490;13.434;2023-07-31T05:02:15;16.70;99.90
20479;DHT22;10398;52.490;13.434;2023-07-31T05:04:40;16.70;99.90
20479;DHT22;10398;52.490;13.434;2023-07-31T05:07:06;16.70;99.90
20479;DHT22;10398;52.490;13.434;2023-07-31T05:09:32;16.70;99.90
20479;DHT22;10398;52.490;13.434;2023-07-31T05:11:57;16.80;99.90
20479;DHT22;10398;52.490;13.434;2023-07-31T05:14:23;16.70;99.90
20479;DHT22;10398;52.490;13.434;2023-07-31T05:16:48;16.80;99.90
20479;DHT22;10398;52.490;13.434;2023-07-31T05:19:14;16.80;99.90
20479;DHT22;10398;52.490;13.434;2023-07-31T05:21:40;16.80;99.90
20479;DHT22;10398;52.490;13.434;2023-07-31T05:24:06;16.90;99.90
20479;DHT22;10398;52.490;13.434;2023-07-31T05:26:31;16.90;99.90
20479;DHT22;10398;52.490;13.434;2023-07-31T05:28:57;16.90;99.90
20479;DHT22;10398;52.490;13.434;2023-07-31T05:31:23;16.90;99.90
20479;DHT22;10398;52.490;13.434;2023-07-31T05:33:50;16.90;99.90
20479;DHT22;10398;52.490;13.434;2023-07-31T05:36:16;16.90;99.90
20479;DHT22;10398;52.490;13.434;2023-07-31T05:38:42;17.00;99.90
20479;DHT22;10398;52.490;13.434;2023-07-31T05:41:10;17.00;99.90
20479;DHT22;10398;52.490;13.434;2023-07-31T05:43:36;17.00;99.90
20479;DHT22;10398;52.490;13.434;2023-07-31T05:46:01;17.00;99.90
20479;DHT22;10398;52.490;13.434;2023-07-31T05:48:27;17.00;99.90
20479;DHT22;10398;52.490;13.434;2023-07-31T05:50:53;17.00;99.90
20479;DHT22;10398;52.490;13.434;2023-07-31T05:53:18;17.00;99.90
20479;DHT22;10398;52.490;13.434;2023-07-31T05:55:44;17.00;99.90
20479;DHT22;10398;52.490;13.434;2023-07-31T05:58:09;17.00;99.90
20479;DHT22;10398;52.490;13.434;2023-07-31T06:00:35;17.00;99.90
20479;DHT22;10398;52.490;13.434;2023-07-31T06:03:01;16.90;99.90
20479;DHT22;10398;52.490;13.434;2023-07-31T06:05:27;16.90;99.90
20479;DHT22;10398;52.490;13.434;2023-07-31T06:07:55;16.80;99.90
20479;DHT22;10398;52.490;13.434;2023-07-31T06:10:21;16.80;99.90
20479;DHT22;10398;52.490;13.434;2023-07-31T06:12:46;16.80;99.90
20479;DHT22;10398;52.490;13.434;2023-07-31T06:15:12;16.80;99.90
20479;DHT22;10398;52.490;13.434;2023-07-31T06:17:38;16.90;99.90
20479;DHT22;10398;52.490;13.434;2023-07-31T06:20:05;16.90;99.90
20479;DHT22;10398;52.490;13.434;2023-07-31T06:22:31;17.00;99.90
20479;DHT22;10398;52.490;13.434;2023-07-31T06:24:57;17.00;99.90
20479;DHT22;10398;52.490;13.434;2023-07-31T06:27:23;17.00;99.90
20479;DHT22;10398;52.490;13.434;2023-07-31T06:29:49;17.00;99.90
20479;DHT22;10398;52.490;13.434;2023-07-31T06:32:14;17.10;99.90
20479;DHT22;10398;52.490;13.434;2023-07-31T06:34:40;17.10;99.90
20479;DHT22;10398;52.490;13.434;2023-07-31T06:37:06;17.10;99.90
20479;DHT22;10398;52.490;13.434;2023-07-31T06:39:31;17.20;99.90
20479;DHT22;10398;52.490;13.434;2023-07-31T06:41:57;17.20;99.90
20479;DHT22;10398;52.490;13.434;2023-07-31T06:44:23;17.20;99.90
20479;DHT22;10398;52.490;13.434;2023-07-31T06:46:49;17.20;99.90
20479;DHT22;10398;52.490;13.434;2023-07-31T06:49:14;17.30;99.90
20479;DHT22;10398;52.490;13.434;2023-07-31T06:51:43;17.30;99.90
20479;DHT22;10398;52.490;13.434;2023-07-31T06:54:09;17.30;99.90
20479;DHT22;10398;52.490;13.434;2023-07-31T06:56:35;17.30;99.90
20479;DHT22;10398;52.490;13.434;2023-07-31T06:59:01;17.30;99.90
20479;DHT22;10398;52.490;13.434;2023-07-31T07:01:26;17.30;99.90
20479;DHT22;10398;52.490;13.434;2023-07-31T07:03:54;17.30;99.90
20479;DHT22;10398;52.490;13.434;2023-07-31T07:06:19;17.30;99.90
20479;DHT22;10398;52.490;13.434;2023-07-31T07:08:45;17.30;99.90
20479;DHT22;10398;52.490;13.434;2023-07-31T07:11:11;17.30;99.90
20479;DHT22;10398;52.490;13.434;2023-07-31T07:13:36;17.30;99.90
20479;DHT22;10398;52.490;13.434;2023-07-31T07:16:02;17.30;99.90
20479;DHT22;10398;52.490;13.434;2023-07-31T07:18:28;17.30;99.90
20479;DHT22;10398;52.490;13.434;2023-07-31T07:20:54;17.20;99.90
20479;DHT22;10398;52.490;13.434;2023-07-31T07:23:22;17.30;99.90
20479;DHT22;10398;52.490;13.434;2023-07-31T07:25:48;17.20;99.90
20479;DHT22;10398;52.490;13.434;2023-07-31T07:28:15;17.20;99.90
20479;DHT22;10398;52.490;13.434;2023-07-31T07:30:40;17.30;99.90
20479;DHT22;10398;52.490;13.434;2023-07-31T07:33:06;17.30;99.90
20479;DHT22;10398;52.490;13.434;2023-07-31T07:35:35;17.30;99.90
20479;DHT22;10398;52.490;13.434;2023-07-31T07:38:04;17.40;99.90
20479;DHT22;10398;52.490;13.434;2023-07-31T07:40:30;17.50;99.90
20479;DHT22;10398;52.490;13.434;2023-07-31T07:42:55;17.50;99.90
20479;DHT22;10398;52.490;13.434;2023-07-31T07:45:21;17.50;99.90
20479;DHT22;10398;52.490;13.434;2023-07-31T07:47:47;17.60;99.90
20479;DHT22;10398;52.490;13.434;2023-07-31T07:50:12;17.70;99.90
20479;DHT22;10398;52.490;13.434;2023-07-31T07:52:38;17.70;99.90
20479;DHT22;10398;52.490;13.434;2023-07-31T07:55:04;17.70;99.90
20479;DHT22;10398;52.490;13.434;2023-07-31T07:57:30;17.70;99.90
20479;DHT22;10398;52.490;13.434;2023-07-31T07:59:55;17.70;99.90
20479;DHT22;10398;52.490;13.434;2023-07-31T08:02:22;17.70;99.90
20479;DHT22;10398;52.490;13.434;2023-07-31T08:04:47;17.80;99.90
20479;DHT22;10398;52.490;13.434;2023-07-31T08:07:14;17.70;99.90
20479;DHT22;10398;52.490;13.434;2023-07-31T08:09:40;17.70;99.90
20479;DHT22;10398;52.490;13.434;2023-07-31T08:12:06;17.60;99.90
20479;DHT22;10398;52.490;13.434;2023-07-31T08:14:32;17.70;99.90
20479;DHT22;10398;52.490;13.434;2023-07-31T08:16:57;17.70;99.90
20479;DHT22;10398;52.490;13.434;2023-07-31T08:19:23;17.60;99.90
20479;DHT22;10398;52.490;13.434;2023-07-31T08:21:49;17.60;99.90
20479;DHT22;10398;52.490;13.434;2023-07-31T08:24:15;17.60;99.90
20479;DHT22;10398;52.490;13.434;2023-07-31T08:26:40;17.60;99.90
20479;DHT22;10398;52.490;13.434;2023-07-31T08:29:06;17.60;99.90
20479;DHT22;10398;52.490;13.434;2023-07-31T08:31:31;17.60;99.90
20479;DHT22;10398;52.490;13.434;2023-07-31T08:33:57;17.60;99.90
20479;DHT22;10398;52.490;13.434;2023-07-31T08:36:23;17.60;99.90
20479;DHT22;10398;52.490;13.434;2023-07-31T08:38:48;17.70;99.90
20479;DHT22;10398;52.490;13.434;2023-07-31T08:41:15;17.70;99.90
20479;DHT22;10398;52.490;13.434;2023-07-31T08:43:44;17.70;99.90
20479;DHT22;10398;52.490;13.434;2023-07-31T08:46:10;17.70;99.90
20479;DHT22;10398;52.490;13.434;2023-07-31T08:48:37;17.70;99.90
20479;DHT22;10398;52.490;13.434;2023-07-31T08:51:06;17.70;99.90
20479;DHT22;10398;52.490;13.434;2023-07-31T08:53:32;17.70;99.90
20479;DHT22;10398;52.490;13.434;2023-07-31T08:55:58;17.70;99.90
20479;DHT22;10398;52.490;13.434;2023-07-31T08:58:25;17.70;99.90
20479;DHT22;10398;52.490;13.434;2023-07-31T09:00:54;17.70;99.90
20479;DHT22;10398;52.490;13.434;2023-07-31T09:03:23;17.70;99.90
20479;DHT22;10398;52.490;13.434;2023-07-31T09:05:50;17.70;99.90
20479;DHT22;10398;52.490;13.434;2023-07-31T09:08:19;17.70;99.90
20479;DHT22;10398;52.490;13.434;2023-07-31T09:10:46;17.80;99.90
20479;DHT22;10398;52.490;13.434;2023-07-31T09:13:15;17.90;99.90
20479;DHT22;10398;52.490;13.434;2023-07-31T09:15:45;17.90;99.90
20479;DHT22;10398;52.490;13.434;2023-07-31T09:18:11;17.90;99.90
20479;DHT22;10398;52.490;13.434;2023-07-31T09:20:37;18.00;99.90
20479;DHT22;10398;52.490;13.434;2023-07-31T09:23:08;18.00;99.90
20479;DHT22;10398;52.490;13.434;2023-07-31T09:25:33;18.00;99.90
20479;DHT22;10398;52.490;13.434;2023-07-31T09:28:07;18.10;99.90
20479;DHT22;10398;52.490;13.434;2023-07-31T09:30:49;18.10;99.90
20479;DHT22;10398;52.490;13.434;2023-07-31T09:33:15;18.10;99.90
20479;DHT22;10398;52.490;13.434;2023-07-31T09:35:41;18.10;99.90
20479;DHT22;10398;52.490;13.434;2023-07-31T09:38:09;18.00;99.90
20479;DHT22;10398;52.490;13.434;2023-07-31T09:40:40;18.00;99.90
20479;DHT22;10398;52.490;13.434;2023-07-31T09:43:08;17.90;99.90
20479;DHT22;10398;52.490;13.434;2023-07-31T09:45:37;17.90;99.90
20479;DHT22;10398;52.490;13.434;2023-07-31T09:48:03;17.80;99.90
20479;DHT22;10398;52.490;13.434;2023-07-31T09:50:31;17.70;99.90
20479;DHT22;10398;52.490;13.434;2023-07-31T09:52:57;17.80;99.90
20479;DHT22;10398;52.490;13.434;2023-07-31T09:55:24;17.80;99.90
20479;DHT22;10398;52.490;13.434;2023-07-31T09:57:50;17.80;99.90
20479;DHT22;10398;52.490;13.434;2023-07-31T10:00:17;17.90;99.90
20479;DHT22;10398;52.490;13.434;2023-07-31T10:02:46;17.90;99.90
20479;DHT22;10398;52.490;13.434;2023-07-31T10:05:13;17.90;99.90
20479;DHT22;10398;52.490;13.434;2023-07-31T10:07:43;17.90;99.90
20479;DHT22;10398;52.490;13.434;2023-07-31T10:10:11;17.90;99.90
20479;DHT22;10398;52.490;13.434;2023-07-31T10:12:37;17.90;99.90
20479;DHT22;10398;52.490;13.434;2023-07-31T10:15:04;18.00;99.90
20479;DHT22;10398;52.490;13.434;2023-07-31T10:17:30;18.10;99.90
20479;DHT22;10398;52.490;13.434;2023-07-31T10:19:58;18.10;99.90
20479;DHT22;10398;52.490;13.434;2023-07-31T10:22:29;18.10;99.90
20479;DHT22;10398;52.490;13.434;2023-07-31T10:24:55;18.20;99.90
20479;DHT22;10398;52.490;13.434;2023-07-31T10:27:25;18.20;99.90
20479;DHT22;10398;52.490;13.434;2023-07-31T10:29:54;18.20;99.90
20479;DHT22;10398;52.490;13.434;2023-07-31T10:32:21;18.30;99.90
20479;DHT22;10398;52.490;13.434;2023-07-31T10:34:48;18.30;99.90
20479;DHT22;10398;52.490;13.434;2023-07-31T10:37:21;18.20;99.90
20479;DHT22;10398;52.490;13.434;2023-07-31T10:40:03;18.20;99.90
20479;DHT22;10398;52.490;13.434;2023-07-31T10:42:36;18.30;99.90
20479;DHT22;10398;52.490;13.434;2023-07-31T10:45:08;18.40;99.90
20479;DHT22;10398;52.490;13.434;2023-07-31T10:47:38;18.50;99.90
20479;DHT22;10398;52.490;13.434;2023-07-31T10:50:19;18.60;99.90
20479;DHT22;10398;52.490;13.434;2023-07-31T10:52:49;18.70;99.90
20479;DHT22;10398;52.490;13.434;2023-07-31T10:58:08;19.20;99.90
20479;DHT22;10398;52.490;13.434;2023-07-31T11:00:43;19.30;99.90
20479;DHT22;10398;52.490;13.434;2023-07-31T11:06:03;19.60;99.90
20479;DHT22;10398;52.490;13.434;2023-07-31T11:08:31;19.70;99.90
20479;DHT22;10398;52.490;13.434;2023-07-31T11:13:39;19.90;99.90
20479;DHT22;10398;52.490;13.434;2023-07-31T11:16:04;20.00;99.90
20479;DHT22;10398;52.490;13.434;2023-07-31T11:18:30;20.00;99.90
20479;DHT22;10398;52.490;13.434;2023-07-31T11:20:56;20.00;99.90
20479;DHT22;10398;52.490;13.434;2023-07-31T11:23:22;20.00;99.90
20479;DHT22;10398;52.490;13.434;2023-07-31T11:25:49;20.00;99.90
20479;DHT22;10398;52.490;13.434;2023-07-31T11:28:17;20.00;99.90
20479;DHT22;10398;52.490;13.434;2023-07-31T11:30:44;20.10;99.90
20479;DHT22;10398;52.490;13.434;2023-07-31T11:33:13;20.10;99.90
20479;DHT22;10398;52.490;13.434;2023-07-31T11:35:46;20.20;99.90
20479;DHT22;10398;52.490;13.434;2023-07-31T11:38:25;20.20;99.90
20479;DHT22;10398;52.490;13.434;2023-07-31T11:40:55;20.30;99.90
20479;DHT22;10398;52.490;13.434;2023-07-31T11:43:22;20.40;99.90
20479;DHT22;10398;52.490;13.434;2023-07-31T11:45:51;20.40;99.90
20479;DHT22;10398;52.490;13.434;2023-07-31T11:48:26;20.30;99.90
20479;DHT22;10398;52.490;13.434;2023-07-31T11:50:54;20.30;99.90
20479;DHT22;10398;52.490;13.434;2023-07-31T11:53:33;20.30;99.90
20479;DHT22;10398;52.490;13.434;2023-07-31T11:56:01;20.30;99.90
20479;DHT22;10398;52.490;13.434;2023-07-31T11:58:30;20.30;99.90
20479;DHT22;10398;52.490;13.434;2023-07-31T12:00:57;20.20;99.90
20479;DHT22;10398;52.490;13.434;2023-07-31T12:03:23;20.20;99.90
20479;DHT22;10398;52.490;13.434;2023-07-31T12:05:49;20.20;99.90
20479;DHT22;10398;52.490;13.434;2023-07-31T12:08:15;20.20;99.90
20479;DHT22;10398;52.490;13.434;2023-07-31T12:10:41;20.20;99.90
20479;DHT22;10398;52.490;13.434;2023-07-31T12:13:12;20.20;99.90
20479;DHT22;10398;52.490;13.434;2023-07-31T12:15:45;20.20;99.90
20479;DHT22;10398;52.490;13.434;2023-07-31T12:18:15;20.20;99.90
20479;DHT22;10398;52.490;13.434;2023-07-31T12:20:49;20.20;99.90
20479;DHT22;10398;52.490;13.434;2023-07-31T12:23:20;20.30;99.90
20479;DHT22;10398;52.490;13.434;2023-07-31T12:28:47;20.50;99.90
20479;DHT22;10398;52.490;13.434;2023-07-31T12:31:18;20.50;99.90
20479;DHT22;10398;52.490;13.434;2023-07-31T12:33:45;20.50;99.90
20479;DHT22;10398;52.490;13.434;2023-07-31T12:36:13;20.50;99.90
20479;DHT22;10398;52.490;13.434;2023-07-31T12:38:39;20.60;99.90
20479;DHT22;10398;52.490;13.434;2023-07-31T12:41:04;20.60;99.90
20479;DHT22;10398;52.490;13.434;2023-07-31T12:43:32;20.60;99.90
20479;DHT22;10398;52.490;13.434;2023-07-31T12:45:59;20.60;99.90
20479;DHT22;10398;52.490;13.434;2023-07-31T12:48:25;20.70;99.90
20479;DHT22;10398;52.490;13.434;2023-07-31T12:50:50;20.80;99.90
20479;DHT22;10398;52.490;13.434;2023-07-31T12:53:16;20.70;99.90
20479;DHT22;10398;52.490;13.434;2023-07-31T12:55:42;20.80;99.90
20479;DHT22;10398;52.490;13.434;2023-07-31T12:58:08;20.70;99.90
20479;DHT22;10398;52.490;13.434;2023-07-31T13:00:33;20.70;99.90
20479;DHT22;10398;52.490;13.434;2023-07-31T13:03:00;20.70;99.90
20479;DHT22;10398;52.490;13.434;2023-07-31T13:05:26;20.70;99.90
20479;DHT22;10398;52.490;13.434;2023-07-31T13:07:52;20.70;99.90
20479;DHT22;10398;52.490;13.434;2023-07-31T13:10:18;20.70;99.90
20479;DHT22;10398;52.490;13.434;2023-07-31T13:12:43;20.70;99.90
20479;DHT22;10398;52.490;13.434;2023-07-31T13:15:09;20.60;99.90
20479;DHT22;10398;52.490;13.434;2023-07-31T13:17:35;20.60;99.90
20479;DHT22;10398;52.490;13.434;2023-07-31T13:20:01;20.60;99.90
20479;DHT22;10398;52.490;13.434;2023-07-31T13:22:27;20.60;99.90
20479;DHT22;10398;52.490;13.434;2023-07-31T13:24:53;20.60;99.90
20479;DHT22;10398;52.490;13.434;2023-07-31T13:27:18;20.60;99.90
20479;DHT22;10398;52.490;13.434;2023-07-31T13:29:50;20.50;99.90
20479;DHT22;10398;52.490;13.434;2023-07-31T13:32:17;20.50;99.90
20479;DHT22;10398;52.490;13.434;2023-07-31T13:34:43;20.50;99.90
20479;DHT22;10398;52.490;13.434;2023-07-31T13:37:09;20.50;99.90
20479;DHT22;10398;52.490;13.434;2023-07-31T13:39:34;20.50;99.90
20479;DHT22;10398;52.490;13.434;2023-07-31T13:42:02;20.60;99.90
20479;DHT22;10398;52.490;13.434;2023-07-31T13:44:28;20.70;99.90
20479;DHT22;10398;52.490;13.434;2023-07-31T13:46:54;20.90;99.90
20479;DHT22;10398;52.490;13.434;2023-07-31T13:49:19;20.90;99.90
20479;DHT22;10398;52.490;13.434;2023-07-31T13:51:45;21.00;99.90
20479;DHT22;10398;52.490;13.434;2023-07-31T13:54:11;21.00;99.90
20479;DHT22;10398;52.490;13.434;2023-07-31T13:56:37;21.00;99.90
20479;DHT22;10398;52.490;13.434;2023-07-31T13:59:03;21.10;99.90
20479;DHT22;10398;52.490;13.434;2023-07-31T14:01:29;21.10;99.90
20479;DHT22;10398;52.490;13.434;2023-07-31T14:03:54;21.10;99.90
20479;DHT22;10398;52.490;13.434;2023-07-31T14:06:20;21.10;99.90
20479;DHT22;10398;52.490;13.434;2023-07-31T14:08:46;21.10;99.90
20479;DHT22;10398;52.490;13.434;2023-07-31T14:11:12;21.00;99.90
20479;DHT22;10398;52.490;13.434;2023-07-31T14:13:38;21.10;99.90
20479;DHT22;10398;52.490;13.434;2023-07-31T14:16:03;21.10;99.90
20479;DHT22;10398;52.490;13.434;2023-07-31T14:18:29;21.10;99.90
20479;DHT22;10398;52.490;13.434;2023-07-31T14:20:55;21.10;99.90
20479;DHT22;10398;52.490;13.434;2023-07-31T14:23:20;21.20;99.90
20479;DHT22;10398;52.490;13.434;2023-07-31T14:25:47;21.20;99.90
20479;DHT22;10398;52.490;13.434;2023-07-31T14:28:13;21.20;99.90
20479;DHT22;10398;52.490;13.434;2023-07-31T14:30:38;21.20;99.90
20479;DHT22;10398;52.490;13.434;2023-07-31T14:33:04;21.10;99.90
20479;DHT22;10398;52.490;13.434;2023-07-31T14:35:29;21.10;99.90
20479;DHT22;10398;52.490;13.434;2023-07-31T14:37:55;21.10;99.90
20479;DHT22;10398;52.490;13.434;2023-07-31T14:40:21;21.10;99.90
20479;DHT22;10398;52.490;13.434;2023-07-31T14:42:47;21.10;99.90
20479;DHT22;10398;52.490;13.434;2023-07-31T14:45:13;21.10;99.90
20479;DHT22;10398;52.490;13.434;2023-07-31T14:47:38;21.20;99.90
20479;DHT22;10398;52.490;13.434;2023-07-31T14:50:04;21.20;99.90
20479;DHT22;10398;52.490;13.434;2023-07-31T14:52:30;21.20;99.90
20479;DHT22;10398;52.490;13.434;2023-07-31T14:54:56;21.20;99.90
20479;DHT22;10398;52.490;13.434;2023-07-31T14:57:22;21.30;99.90
20479;DHT22;10398;52.490;13.434;2023-07-31T14:59:47;21.30;99.90
20479;DHT22;10398;52.490;13.434;2023-07-31T15:02:14;21.30;99.90
20479;DHT22;10398;52.490;13.434;2023-07-31T15:04:40;21.20;99.90
20479;DHT22;10398;52.490;13.434;2023-07-31T15:07:06;21.20;99.90
20479;DHT22;10398;52.490;13.434;2023-07-31T15:09:31;21.20;99.90
20479;DHT22;10398;52.490;13.434;2023-07-31T15:11:57;21.20;99.90
20479;DHT22;10398;52.490;13.434;2023-07-31T15:14:24;21.20;99.90
20479;DHT22;10398;52.490;13.434;2023-07-31T15:16:50;21.20;99.90
20479;DHT22;10398;52.490;13.434;2023-07-31T15:19:16;21.10;99.90
20479;DHT22;10398;52.490;13.434;2023-07-31T15:21:41;21.10;99.90
20479;DHT22;10398;52.490;13.434;2023-07-31T15:24:07;21.10;99.90
20479;DHT22;10398;52.490;13.434;2023-07-31T15:26:33;21.10;99.90
20479;DHT22;10398;52.490;13.434;2023-07-31T15:29:06;21.10;99.90